Time;durP1;ratioP1;P1;durP2;ratioP2;P2;SDS_P1;SDS_P2;PMS_P1;PMS_P2;Temp;Humidity;BMP_temperature;BMP_pressure;BME280_temperature;BME280_humidity;BME280_pressure;Samples;Min_cycle;Max_cycle;Signal;HPM_P1;HPM_P2
2023/07/17 00:01:07;;;;;;;6.13;3.83;;;19.00;1.00;;;;;;4992963;28;20191;-55
2023/07/17 00:03:32;;;;;;;5.83;3.70;;;18.90;1.00;;;;;;4992896;28;20184;-56
2023/07/17 00:05:58;;;;;;;9.03;3.73;;;18.90;1.00;;;;;;4993016;28;20184;-55
2023/07/17 00:08:24;;;;;;;7.50;4.20;;;18.90;1.00;;;;;;4992998;28;20224;-55
2023/07/17 00:10:50;;;;;;;6.80;3.70;;;18.90;1.00;;;;;;4993048;28;20215;-56
2023/07/17 00:13:16;;;;;;;7.33;3.63;;;18.80;1.00;;;;;;4992748;28;20178;-56
2023/07/17 00:15:41;;;;;;;8.97;4.30;;;18.80;1.00;;;;;;4992661;28;20768;-55
2023/07/17 00:18:07;;;;;;;5.60;3.83;;;18.80;1.00;;;;;;4992540;28;20245;-55
2023/07/17 00:20:32;;;;;;;7.70;4.13;;;18.80;1.00;;;;;;4992322;28;20180;-55
2023/07/17 00:22:58;;;;;;;6.00;4.00;;;18.80;1.00;;;;;;4992460;28;20190;-56
2023/07/17 00:25:24;;;;;;;4.77;3.87;;;18.80;1.00;;;;;;4992423;28;20262;-56
2023/07/17 00:27:50;;;;;;;7.60;4.23;;;18.80;1.00;;;;;;4992811;28;20183;-55
2023/07/17 00:30:15;;;;;;;6.17;3.70;;;18.80;1.00;;;;;;4992998;28;20184;-55
2023/07/17 00:32:41;;;;;;;6.73;3.90;;;18.70;1.00;;;;;;4992703;28;20202;-55
2023/07/17 00:35:07;;;;;;;8.20;4.07;;;18.70;1.00;;;;;;4992369;28;20190;-56
2023/07/17 00:37:33;;;;;;;6.40;3.90;;;18.70;1.00;;;;;;4992432;28;20185;-55
2023/07/17 00:39:58;;;;;;;8.20;4.17;;;18.60;1.00;;;;;;4992291;28;20437;-56
2023/07/17 00:42:24;;;;;;;5.93;4.63;;;18.60;1.00;;;;;;4992309;28;20186;-56
2023/07/17 00:44:50;;;;;;;5.43;4.10;;;18.60;1.00;;;;;;4992378;28;20238;-57
2023/07/17 00:47:15;;;;;;;5.80;4.30;;;18.60;1.00;;;;;;4992479;28;20183;-56
2023/07/17 00:49:41;;;;;;;5.50;3.50;;;18.70;1.00;;;;;;4992205;28;20254;-56
2023/07/17 00:52:09;;;;;;;7.33;4.40;;;18.70;1.00;;;;;;4992410;28;20272;-56
2023/07/17 00:54:35;;;;;;;7.63;4.53;;;18.60;1.00;;;;;;4992010;28;20573;-56
2023/07/17 00:57:04;;;;;;;8.53;4.77;;;18.60;1.00;;;;;;4992292;28;20434;-56
2023/07/17 00:59:30;;;;;;;6.87;3.87;;;18.50;1.00;;;;;;4991846;28;20593;-56
2023/07/17 01:01:57;;;;;;;11.47;4.23;;;18.40;1.00;;;;;;4992139;28;20416;-56
2023/07/17 01:04:22;;;;;;;6.10;4.10;;;18.40;1.00;;;;;;4991851;28;20419;-56
2023/07/17 01:06:48;;;;;;;8.40;4.40;;;18.40;1.00;;;;;;4992028;28;20423;-56
2023/07/17 01:09:16;;;;;;;5.80;4.33;;;18.40;1.00;;;;;;4991684;28;20700;-56
2023/07/17 01:11:41;;;;;;;9.27;4.40;;;18.40;1.00;;;;;;4992268;28;20192;-56
2023/07/17 01:14:17;;;;;;;12.50;5.00;;;18.40;1.00;;;;;;4991940;28;20421;-56
2023/07/17 01:16:45;;;;;;;5.77;4.20;;;18.40;1.00;;;;;;4992246;28;20175;-56
2023/07/17 01:19:11;;;;;;;5.97;4.47;;;18.30;1.00;;;;;;4991553;28;20770;-56
2023/07/17 01:21:52;;;;;;;6.10;3.53;;;18.40;1.00;;;;;;4991794;28;20415;-56
2023/07/17 01:24:19;;;;;;;6.10;4.33;;;18.30;1.00;;;;;;4991980;28;20172;-56
2023/07/17 01:26:45;;;;;;;7.63;5.10;;;18.20;1.00;;;;;;4991748;28;20427;-56
2023/07/17 01:29:10;;;;;;;9.10;5.10;;;18.10;1.00;;;;;;4991426;28;20467;-56
2023/07/17 01:31:38;;;;;;;4.80;4.33;;;18.20;1.00;;;;;;4991562;28;20469;-55
2023/07/17 01:34:04;;;;;;;9.47;4.60;;;18.20;1.00;;;;;;4991677;28;20196;-55
2023/07/17 01:36:29;;;;;;;7.83;5.00;;;18.20;1.00;;;;;;4991900;28;20492;-55
2023/07/17 01:38:55;;;;;;;8.97;4.80;;;18.10;1.00;;;;;;4991669;28;20572;-56
2023/07/17 01:41:23;;;;;;;5.23;4.43;;;18.20;1.00;;;;;;4991745;28;20268;-56
2023/07/17 01:43:48;;;;;;;9.10;4.97;;;18.20;1.00;;;;;;4991622;28;20419;-55
2023/07/17 01:46:14;;;;;;;5.87;4.17;;;18.20;1.00;;;;;;4991985;28;20880;-56
2023/07/17 01:48:40;;;;;;;7.70;4.30;;;18.20;1.00;;;;;;4991371;28;20595;-56
2023/07/17 01:51:06;;;;;;;8.10;5.07;;;18.10;1.00;;;;;;4991585;28;20220;-55
2023/07/17 01:53:33;;;;;;;7.37;4.30;;;18.10;1.00;;;;;;4991694;28;20790;-56
2023/07/17 01:55:59;;;;;;;6.90;4.40;;;18.20;1.00;;;;;;4991303;28;20280;-56
2023/07/17 01:58:25;;;;;;;7.23;5.07;;;18.20;1.00;;;;;;4991021;28;20439;-56
2023/07/17 02:00:55;;;;;;;6.07;4.20;;;18.20;1.00;;;;;;4991629;28;20422;-56
2023/07/17 02:03:21;;;;;;;6.43;4.27;;;18.20;1.00;;;;;;4991645;28;20187;-56
2023/07/17 02:05:46;;;;;;;6.77;4.10;;;18.20;1.00;;;;;;4991066;28;20516;-56
2023/07/17 02:08:12;;;;;;;6.73;4.43;;;18.20;1.00;;;;;;4991128;28;20630;-56
2023/07/17 02:10:44;;;;;;;6.47;4.30;;;18.20;1.00;;;;;;4991190;28;20188;-56
2023/07/17 02:13:10;;;;;;;9.80;4.50;;;18.20;1.00;;;;;;4991290;28;20633;-55
2023/07/17 02:15:36;;;;;;;7.10;3.73;;;18.10;1.00;;;;;;4991311;28;20430;-56
2023/07/17 02:18:02;;;;;;;7.57;4.23;;;18.10;1.00;;;;;;4991173;28;20195;-56
2023/07/17 02:20:28;;;;;;;5.20;3.77;;;18.10;1.00;;;;;;4990970;28;20683;-56
2023/07/17 02:22:53;;;;;;;6.30;4.30;;;18.10;1.00;;;;;;4993185;28;20427;-56
2023/07/17 02:25:19;;;;;;;6.77;3.93;;;18.00;1.00;;;;;;4993945;28;20477;-56
2023/07/17 02:27:44;;;;;;;4.80;3.97;;;18.10;1.00;;;;;;4994667;28;20199;-56
2023/07/17 02:30:11;;;;;;;6.83;4.27;;;18.00;1.00;;;;;;4994363;28;20207;-56
2023/07/17 02:32:36;;;;;;;6.80;4.20;;;18.00;1.00;;;;;;4994444;28;20215;-57
2023/07/17 02:35:02;;;;;;;6.50;4.20;;;17.90;1.00;;;;;;4994080;28;20434;-57
2023/07/17 02:37:28;;;;;;;6.70;4.17;;;17.90;1.00;;;;;;4994069;28;20651;-55
2023/07/17 02:39:54;;;;;;;6.47;4.03;;;17.80;1.00;;;;;;4994477;28;20475;-56
2023/07/17 02:42:20;;;;;;;6.57;4.33;;;17.80;1.00;;;;;;4994285;28;20187;-56
2023/07/17 02:44:46;;;;;;;9.40;4.40;;;17.80;1.00;;;;;;4994310;28;20188;-56
2023/07/17 02:47:12;;;;;;;10.80;4.33;;;17.80;1.00;;;;;;4994489;28;20198;-56
2023/07/17 02:49:38;;;;;;;5.13;3.80;;;17.80;1.00;;;;;;4993780;28;20459;-56
2023/07/17 02:52:05;;;;;;;6.63;4.60;;;17.70;1.00;;;;;;4994379;28;20263;-57
2023/07/17 02:54:30;;;;;;;5.63;3.93;;;17.60;1.00;;;;;;4993806;28;20475;-57
2023/07/17 02:56:56;;;;;;;6.67;3.80;;;17.60;1.00;;;;;;4994382;28;20906;-56
2023/07/17 02:59:22;;;;;;;7.57;4.03;;;17.60;1.00;;;;;;4994353;28;20192;-56
2023/07/17 03:01:48;;;;;;;6.30;3.97;;;17.60;1.00;;;;;;4993707;28;20176;-56
2023/07/17 03:04:14;;;;;;;4.80;3.90;;;17.60;1.00;;;;;;4993986;28;20237;-57
2023/07/17 03:06:39;;;;;;;4.33;3.57;;;17.70;1.00;;;;;;4993902;28;20426;-56
2023/07/17 03:09:05;;;;;;;5.40;4.10;;;17.60;1.00;;;;;;4993788;28;20455;-56
2023/07/17 03:11:31;;;;;;;6.20;4.20;;;17.60;1.00;;;;;;4993542;28;20195;-58
2023/07/17 03:13:57;;;;;;;7.73;4.33;;;17.70;1.00;;;;;;4994124;28;20195;-56
2023/07/17 03:16:22;;;;;;;6.97;3.90;;;17.60;1.00;;;;;;4993993;28;20437;-56
2023/07/17 03:18:48;;;;;;;7.23;4.80;;;17.70;1.00;;;;;;4993898;28;20203;-56
2023/07/17 03:21:13;;;;;;;7.80;4.53;;;17.70;1.00;;;;;;4993803;28;20181;-57
2023/07/17 03:23:39;;;;;;;8.00;3.60;;;17.70;1.00;;;;;;4993663;28;20195;-56
2023/07/17 03:26:05;;;;;;;8.40;4.43;;;17.60;1.00;;;;;;4993398;28;20658;-56
2023/07/17 03:28:30;;;;;;;12.50;4.30;;;17.60;1.00;;;;;;4993214;28;20208;-56
2023/07/17 03:30:56;;;;;;;5.60;4.17;;;17.60;1.00;;;;;;4993553;28;20187;-56
2023/07/17 03:33:21;;;;;;;9.37;4.90;;;17.60;1.00;;;;;;4992153;28;20215;-56
2023/07/17 03:35:47;;;;;;;7.03;4.27;;;17.60;1.00;;;;;;4993644;28;20184;-56
2023/07/17 03:38:13;;;;;;;7.23;4.37;;;17.60;1.00;;;;;;4993539;28;20597;-55
2023/07/17 03:40:38;;;;;;;9.30;4.57;;;17.70;1.00;;;;;;4993337;28;20184;-57
2023/07/17 03:43:04;;;;;;;7.70;4.50;;;17.70;1.00;;;;;;4993348;28;20180;-56
2023/07/17 03:45:29;;;;;;;10.93;4.60;;;17.60;1.00;;;;;;4993052;28;20184;-58
2023/07/17 03:47:55;;;;;;;9.43;4.87;;;17.70;1.00;;;;;;4993223;28;20578;-56
2023/07/17 03:50:21;;;;;;;7.50;4.73;;;17.70;1.00;;;;;;4993349;28;20188;-56
2023/07/17 03:52:46;;;;;;;7.97;4.47;;;17.60;1.00;;;;;;4993217;28;20595;-57
2023/07/17 03:55:12;;;;;;;6.80;4.50;;;17.60;1.00;;;;;;4992889;28;20353;-56
2023/07/17 03:57:37;;;;;;;10.30;4.80;;;17.70;1.00;;;;;;4993333;28;20207;-56
2023/07/17 04:00:04;;;;;;;8.03;5.27;;;17.70;1.00;;;;;;4993133;28;20640;-56
2023/07/17 04:02:29;;;;;;;6.80;4.70;;;17.60;1.00;;;;;;4992758;28;20195;-56
2023/07/17 04:04:56;;;;;;;6.80;4.37;;;17.60;1.00;;;;;;4993196;28;20424;-56
2023/07/17 04:07:21;;;;;;;11.93;4.63;;;17.60;1.00;;;;;;4993142;28;20188;-57
2023/07/17 04:09:47;;;;;;;10.07;4.93;;;17.70;1.00;;;;;;4992871;28;20953;-56
2023/07/17 04:12:13;;;;;;;7.00;4.60;;;17.70;1.00;;;;;;4992710;28;20188;-56
2023/07/17 04:14:38;;;;;;;8.07;5.03;;;17.70;1.00;;;;;;4992612;28;20183;-56
2023/07/17 04:17:04;;;;;;;7.53;4.40;;;17.70;1.00;;;;;;4992723;28;20283;-57
2023/07/17 04:19:30;;;;;;;7.00;4.30;;;17.60;1.00;;;;;;4993000;28;20216;-56
2023/07/17 04:21:56;;;;;;;5.07;4.00;;;17.60;1.00;;;;;;4993047;28;20451;-56
2023/07/17 04:24:25;;;;;;;8.10;4.13;;;17.60;1.00;;;;;;4992697;28;20669;-57
2023/07/17 04:26:52;;;;;;;7.97;4.53;;;17.60;1.00;;;;;;4992650;28;20190;-56
2023/07/17 04:29:20;;;;;;;7.20;4.00;;;17.60;1.00;;;;;;4992898;28;20506;-57
2023/07/17 04:31:45;;;;;;;7.33;5.10;;;17.60;1.00;;;;;;4992696;28;20424;-56
2023/07/17 04:34:11;;;;;;;8.47;4.30;;;17.70;1.00;;;;;;4992593;28;20910;-56
2023/07/17 04:36:37;;;;;;;8.17;4.10;;;17.80;1.00;;;;;;4992191;28;20188;-56
2023/07/17 04:39:04;;;;;;;8.73;5.30;;;17.80;1.00;;;;;;4992587;28;20194;-57
2023/07/17 04:41:30;;;;;;;9.73;4.70;;;17.80;1.00;;;;;;4992416;28;20258;-57
2023/07/17 04:43:56;;;;;;;8.73;4.37;;;17.90;1.00;;;;;;4992129;28;20426;-57
2023/07/17 04:46:21;;;;;;;5.50;4.30;;;17.90;1.00;;;;;;4992364;28;20195;-56
2023/07/17 04:48:47;;;;;;;9.17;4.63;;;17.90;1.00;;;;;;4992596;28;20671;-57
2023/07/17 04:51:12;;;;;;;9.57;4.70;;;17.90;1.00;;;;;;4992390;28;20509;-56
2023/07/17 04:53:38;;;;;;;7.80;4.13;;;17.90;1.00;;;;;;4992243;28;20628;-57
2023/07/17 04:56:04;;;;;;;11.10;4.97;;;17.90;1.00;;;;;;4991914;28;20190;-56
2023/07/17 04:58:32;;;;;;;8.73;4.80;;;17.90;1.00;;;;;;4992164;28;20218;-55
2023/07/17 05:01:03;;;;;;;11.03;4.50;;;17.90;1.00;;;;;;4992134;28;20220;-56
2023/07/17 05:03:28;;;;;;;7.60;4.57;;;17.80;1.00;;;;;;4992187;28;20838;-55
2023/07/17 05:05:54;;;;;;;7.37;4.80;;;17.80;1.00;;;;;;4991931;28;20455;-56
2023/07/17 05:08:20;;;;;;;11.00;4.43;;;17.80;1.00;;;;;;4992212;28;20209;-56
2023/07/17 05:11:02;;;;;;;8.10;5.53;;;17.80;1.00;;;;;;4992291;28;20693;-56
2023/07/17 05:13:28;;;;;;;11.00;5.20;;;17.80;1.00;;;;;;4991821;28;20427;-57
2023/07/17 05:15:54;;;;;;;7.97;4.50;;;17.80;1.00;;;;;;4991962;28;20445;-57
2023/07/17 05:18:20;;;;;;;7.37;4.40;;;17.80;1.00;;;;;;4991762;28;20427;-56
2023/07/17 05:20:50;;;;;;;10.17;4.50;;;17.90;1.00;;;;;;4991833;28;20920;-56
2023/07/17 05:23:16;;;;;;;10.83;4.93;;;17.80;1.00;;;;;;4992324;28;20177;-56
2023/07/17 05:25:51;;;;;;;10.60;4.80;;;17.80;1.00;;;;;;4992074;28;20817;-57
2023/07/17 05:28:17;;;;;;;7.03;4.60;;;17.80;1.00;;;;;;4991975;28;20239;-57
2023/07/17 05:30:43;;;;;;;9.97;4.47;;;17.80;1.00;;;;;;4992021;28;20927;-57
2023/07/17 05:33:08;;;;;;;7.17;4.77;;;17.90;1.00;;;;;;4991911;28;20523;-57
2023/07/17 05:35:34;;;;;;;10.37;4.80;;;18.00;1.00;;;;;;4991656;28;20187;-57
2023/07/17 05:37:59;;;;;;;11.10;4.70;;;18.10;1.00;;;;;;4991961;28;20190;-56
2023/07/17 05:40:25;;;;;;;7.03;4.27;;;18.10;1.00;;;;;;4991535;28;20184;-56
2023/07/17 05:42:51;;;;;;;11.63;4.97;;;18.00;1.00;;;;;;4991640;28;20176;-57
2023/07/17 05:45:16;;;;;;;11.10;4.93;;;18.00;1.00;;;;;;4991731;28;20239;-57
2023/07/17 05:47:42;;;;;;;9.10;4.93;;;18.00;1.00;;;;;;4991725;28;20195;-57
2023/07/17 05:50:09;;;;;;;10.97;5.07;;;18.00;1.00;;;;;;4991832;28;20644;-55
2023/07/17 05:52:35;;;;;;;8.37;5.57;;;18.10;1.00;;;;;;4991421;28;20228;-57
2023/07/17 05:55:01;;;;;;;7.73;4.50;;;18.50;1.00;;;;;;4990871;28;20509;-57
2023/07/17 05:57:26;;;;;;;11.20;5.00;;;18.60;1.00;;;;;;4993219;28;20203;-56
2023/07/17 05:59:52;;;;;;;6.93;4.60;;;18.60;1.00;;;;;;4994889;28;20245;-56
2023/07/17 06:02:17;;;;;;;8.93;4.80;;;18.60;1.00;;;;;;4994696;28;20179;-57
2023/07/17 06:04:45;;;;;;;10.10;5.20;;;18.50;1.00;;;;;;4994466;28;20190;-56
2023/07/17 06:07:10;;;;;;;8.00;4.93;;;18.60;1.00;;;;;;4995039;28;20211;-57
2023/07/17 06:09:36;;;;;;;10.87;5.00;;;19.00;1.00;;;;;;4994656;28;20508;-56
2023/07/17 06:12:02;;;;;;;6.70;4.33;;;19.10;1.00;;;;;;4994881;28;20188;-56
2023/07/17 06:14:28;;;;;;;10.60;4.97;;;19.20;1.00;;;;;;4995128;28;20431;-57
2023/07/17 06:16:53;;;;;;;11.43;4.70;;;19.00;1.00;;;;;;4993273;28;20287;-56
2023/07/17 06:19:19;;;;;;;10.47;5.27;;;19.00;1.00;;;;;;4994563;28;20188;-57
2023/07/17 06:21:44;;;;;;;11.03;5.13;;;19.00;1.00;;;;;;4994436;28;20591;-56
2023/07/17 06:24:10;;;;;;;9.10;5.13;;;19.10;1.00;;;;;;4994614;28;20231;-56
2023/07/17 06:26:36;;;;;;;9.33;5.20;;;19.40;1.00;;;;;;4994594;28;20575;-55
2023/07/17 06:29:03;;;;;;;11.97;4.30;;;19.70;1.00;;;;;;4994383;28;20212;-58
2023/07/17 06:31:29;;;;;;;7.93;4.17;;;19.80;1.00;;;;;;4994762;28;20419;-56
2023/07/17 06:33:55;;;;;;;7.53;4.27;;;19.60;1.00;;;;;;4994070;28;20784;-56
2023/07/17 06:36:20;;;;;;;9.30;4.60;;;19.80;1.00;;;;;;4994063;28;20417;-57
2023/07/17 06:38:47;;;;;;;11.40;4.57;;;20.00;1.00;;;;;;4994363;28;20214;-57
2023/07/17 06:41:13;;;;;;;6.93;4.40;;;20.00;1.00;;;;;;4994515;28;20192;-56
2023/07/17 06:43:39;;;;;;;6.87;4.10;;;20.00;1.00;;;;;;4993986;28;20985;-56
2023/07/17 06:46:04;;;;;;;12.57;4.90;;;20.00;1.00;;;;;;4994226;28;20419;-56
2023/07/17 06:48:30;;;;;;;10.20;4.30;;;20.10;1.00;;;;;;4994330;28;20218;-57
2023/07/17 06:50:56;;;;;;;5.30;4.03;;;20.30;1.00;;;;;;4994299;28;20251;-57
2023/07/17 06:53:21;;;;;;;8.60;4.00;;;20.70;1.00;;;;;;4994057;28;20262;-57
2023/07/17 06:56:00;;;;;;;8.60;4.40;;;20.90;1.00;;;;;;4993936;28;20317;-57
2023/07/17 06:58:26;;;;;;;11.17;4.70;;;21.20;1.00;;;;;;4993980;28;20178;-56
2023/07/17 07:00:59;;;;;;;10.63;4.47;;;21.30;1.00;;;;;;4993740;28;20417;-56
2023/07/17 07:03:27;;;;;;;7.13;3.73;;;21.30;1.00;;;;;;4994099;28;20451;-56
2023/07/17 07:06:00;;;;;;;6.70;3.50;;;21.40;1.00;;;;;;4994204;28;20421;-56
2023/07/17 07:08:28;;;;;;;8.70;3.97;;;21.40;1.00;;;;;;4993677;28;20775;-55
2023/07/17 07:10:56;;;;;;;11.53;4.00;;;21.40;1.00;;;;;;4993564;28;20926;-55
2023/07/17 07:13:22;;;;;;;10.83;3.90;;;21.40;1.00;;;;;;4994236;28;20421;-56
2023/07/17 07:15:50;;;;;;;7.43;4.20;;;21.50;1.00;;;;;;4993648;28;21051;-55
2023/07/17 07:18:16;;;;;;;9.63;4.40;;;21.80;1.00;;;;;;4993865;28;20500;-55
2023/07/17 07:20:41;;;;;;;8.80;4.47;;;21.80;1.00;;;;;;4993745;28;20873;-56
2023/07/17 07:23:07;;;;;;;13.93;4.37;;;21.90;1.00;;;;;;4993389;28;20188;-55
2023/07/17 07:25:33;;;;;;;10.93;4.13;;;22.20;1.00;;;;;;4993611;28;20186;-56
2023/07/17 07:28:00;;;;;;;10.70;4.50;;;22.40;1.00;;;;;;4993575;28;20524;-55
2023/07/17 07:30:26;;;;;;;11.93;4.70;;;22.70;1.00;;;;;;4993693;28;20443;-55
2023/07/17 07:32:52;;;;;;;8.50;3.80;;;22.50;99.90;;;;;;4993804;28;20415;-56
2023/07/17 07:35:17;;;;;;;8.43;3.97;;;22.60;99.90;;;;;;4993975;28;20767;-56
2023/07/17 07:37:43;;;;;;;6.10;3.80;;;22.50;99.90;;;;;;4993483;28;20204;-56
2023/07/17 07:40:11;;;;;;;10.93;4.60;;;22.40;99.90;;;;;;4993195;28;20569;-56
2023/07/17 07:42:41;;;;;;;8.10;3.50;;;22.60;99.90;;;;;;4993342;28;20185;-55
2023/07/17 07:45:06;;;;;;;9.17;4.20;;;22.80;99.90;;;;;;4993065;28;20936;-55
2023/07/17 07:47:32;;;;;;;8.23;4.30;;;22.60;99.90;;;;;;4993131;28;20420;-56
2023/07/17 07:50:00;;;;;;;4.97;3.47;;;22.30;99.90;;;;;;4993171;28;20255;-55
2023/07/17 07:52:25;;;;;;;8.23;3.97;;;22.30;99.90;;;;;;4993334;28;20481;-56
2023/07/17 07:54:51;;;;;;;6.60;3.70;;;22.50;99.90;;;;;;4993157;28;20471;-56
2023/07/17 07:57:17;;;;;;;8.60;3.53;;;22.40;99.90;;;;;;4993485;28;20192;-56
2023/07/17 07:59:42;;;;;;;6.80;3.93;;;22.10;99.90;;;;;;4992891;28;20190;-56
2023/07/17 08:02:09;;;;;;;5.17;3.20;;;22.00;99.90;;;;;;4993401;28;20183;-56
2023/07/17 08:04:35;;;;;;;5.53;3.30;;;22.00;99.90;;;;;;4993007;28;20206;-56
2023/07/17 08:07:00;;;;;;;6.53;3.60;;;21.70;99.90;;;;;;4993359;28;20882;-56
2023/07/17 08:09:27;;;;;;;4.80;3.10;;;21.60;99.90;;;;;;4993054;28;20263;-55
2023/07/17 08:11:52;;;;;;;12.10;4.13;;;21.70;99.90;;;;;;4992937;28;20652;-55
2023/07/17 08:14:20;;;;;;;8.47;3.03;;;21.70;99.90;;;;;;4992986;28;20422;-56
2023/07/17 08:16:47;;;;;;;4.43;3.00;;;22.10;99.90;;;;;;4991417;28;20196;-56
2023/07/17 08:19:12;;;;;;;4.17;2.80;;;22.60;99.90;;;;;;4992321;28;20435;-56
2023/07/17 08:21:38;;;;;;;7.60;3.27;;;23.30;99.90;;;;;;4993067;28;20423;-55
2023/07/17 08:24:04;;;;;;;5.03;3.10;;;23.80;99.90;;;;;;4992590;28;20538;-55
2023/07/17 08:26:29;;;;;;;5.80;2.97;;;24.10;99.90;;;;;;4993045;28;20188;-56
2023/07/17 08:28:55;;;;;;;6.90;3.27;;;23.90;99.90;;;;;;4992921;28;20204;-55
2023/07/17 08:31:21;;;;;;;5.70;3.93;;;23.90;99.90;;;;;;4991639;28;20178;-55
2023/07/17 08:33:46;;;;;;;6.57;3.50;;;23.80;99.90;;;;;;4992510;28;20184;-57
2023/07/17 08:36:12;;;;;;;5.93;3.43;;;23.40;99.90;;;;;;4992628;28;20180;-56
2023/07/17 08:38:38;;;;;;;7.80;3.50;;;23.20;99.90;;;;;;4992255;28;20196;-56
2023/07/17 08:41:03;;;;;;;8.60;3.50;;;23.40;99.90;;;;;;4992366;28;20245;-56
2023/07/17 08:43:29;;;;;;;4.60;3.10;;;23.50;99.90;;;;;;4992603;28;20267;-55
2023/07/17 08:45:56;;;;;;;8.43;3.40;;;23.30;99.90;;;;;;4992427;28;20184;-55
2023/07/17 08:48:24;;;;;;;4.60;3.10;;;23.30;99.90;;;;;;4992259;28;20463;-56
2023/07/17 08:50:51;;;;;;;6.30;3.20;;;23.70;99.90;;;;;;4992615;28;20427;-56
2023/07/17 08:53:19;;;;;;;6.83;3.47;;;23.90;99.90;;;;;;4992373;28;20416;-56
2023/07/17 08:55:46;;;;;;;6.87;3.40;;;24.30;99.90;;;;;;4991852;28;20483;-56
2023/07/17 08:58:13;;;;;;;7.00;3.30;;;24.30;99.90;;;;;;4992187;28;20452;-56
2023/07/17 09:00:39;;;;;;;7.43;3.43;;;24.70;99.90;;;;;;4992175;28;20421;-55
2023/07/17 09:03:04;;;;;;;6.23;3.30;;;24.80;99.90;;;;;;4992329;28;20412;-56
2023/07/17 09:05:30;;;;;;;9.63;4.00;;;24.40;99.90;;;;;;4991806;28;20516;-57
2023/07/17 09:07:55;;;;;;;10.07;4.00;;;24.00;99.90;;;;;;4991820;28;20181;-55
2023/07/17 09:10:23;;;;;;;4.60;3.50;;;23.70;99.90;;;;;;4991673;28;20224;-58
2023/07/17 09:13:00;;;;;;;8.90;3.90;;;23.80;99.90;;;;;;4991805;28;20203;-57
2023/07/17 09:15:30;;;;;;;7.47;3.87;;;23.80;99.90;;;;;;4992126;28;20423;-57
2023/07/17 09:17:56;;;;;;;14.97;3.97;;;23.60;99.90;;;;;;4991650;28;20447;-54
2023/07/17 09:20:22;;;;;;;7.63;4.30;;;23.30;99.90;;;;;;4991471;28;20424;-54
2023/07/17 09:22:49;;;;;;;3.60;3.10;;;23.00;99.90;;;;;;4991483;28;20426;-54
2023/07/17 09:25:16;;;;;;;5.60;3.50;;;23.40;99.90;;;;;;4992234;28;20185;-57
2023/07/17 09:27:45;;;;;;;7.47;3.63;;;23.80;99.90;;;;;;4992047;28;20435;-57
2023/07/17 09:30:12;;;;;;;6.70;3.47;;;23.70;99.90;;;;;;4991432;28;20911;-57
2023/07/17 09:32:38;;;;;;;5.23;2.80;;;23.30;99.90;;;;;;4991711;28;20412;-54
2023/07/17 09:35:05;;;;;;;4.67;2.60;;;23.10;99.90;;;;;;4991350;28;20955;-57
2023/07/17 09:37:32;;;;;;;4.57;2.70;;;22.70;99.90;;;;;;4991491;28;20179;-55
2023/07/17 09:39:59;;;;;;;8.50;3.43;;;22.50;99.90;;;;;;4991265;28;20447;-55
2023/07/17 09:42:25;;;;;;;7.27;3.13;;;23.00;99.90;;;;;;4991330;28;20430;-55
2023/07/17 09:44:52;;;;;;;6.27;3.10;;;23.70;99.90;;;;;;4991622;28;20420;-56
2023/07/17 09:47:21;;;;;;;5.43;3.03;;;23.90;99.90;;;;;;4991644;28;20251;-56
2023/07/17 09:49:50;;;;;;;7.20;2.80;;;23.70;99.90;;;;;;4991859;28;20989;-56
2023/07/17 09:52:17;;;;;;;7.20;2.90;;;23.40;99.90;;;;;;4991887;28;20431;-57
2023/07/17 09:54:51;;;;;;;8.10;2.50;;;23.90;99.90;;;;;;4990928;28;20487;-55
2023/07/17 09:57:29;;;;;;;3.73;2.40;;;24.30;99.90;;;;;;5006385;28;20436;-56
2023/07/17 10:00:00;;;;;;;4.63;2.60;;;25.10;99.90;;;;;;4991759;28;20415;-55
2023/07/17 10:02:36;;;;;;;3.97;2.77;;;25.30;99.90;;;;;;4991311;28;20470;-55
2023/07/17 10:05:05;;;;;;;3.17;2.60;;;24.70;99.90;;;;;;4991783;28;20460;-54
2023/07/17 10:07:38;;;;;;;8.53;2.77;;;24.10;99.90;;;;;;4991086;28;20428;-54
2023/07/17 10:10:05;;;;;;;9.60;3.00;;;23.70;99.90;;;;;;4991728;28;20444;-55
2023/07/17 10:12:32;;;;;;;5.07;2.87;;;23.30;99.90;;;;;;4991474;28;20424;-54
2023/07/17 10:14:59;;;;;;;5.20;3.13;;;22.90;99.90;;;;;;4991029;28;20412;-54
2023/07/17 10:17:30;;;;;;;6.50;2.67;;;23.00;99.90;;;;;;4990845;28;20413;-54
2023/07/17 10:20:00;;;;;;;8.27;2.90;;;23.20;99.90;;;;;;4991108;28;20423;-54
2023/07/17 10:22:38;;;;;;;11.10;3.13;;;23.60;99.90;;;;;;4991116;28;20419;-54
2023/07/17 10:25:19;;;;;;;6.20;2.83;;;23.60;99.90;;;;;;4991381;28;20430;-54
2023/07/17 10:27:58;;;;;;;4.93;3.33;;;23.60;99.90;;;;;;4991291;28;20510;-55
2023/07/17 10:30:24;;;;;;;5.67;2.93;;;23.60;99.90;;;;;;4990686;28;20474;-54
2023/07/17 10:33:12;;;;;;;6.87;3.30;;;23.50;99.90;;;;;;4990994;28;20432;-54
2023/07/17 10:35:53;;;;;;;6.53;3.17;;;23.30;99.90;;;;;;4990971;28;20219;-54
2023/07/17 10:38:27;;;;;;;6.77;3.87;;;23.00;99.90;;;;;;4991000;28;20411;-54
2023/07/17 10:41:05;;;;;;;4.87;3.10;;;22.70;99.90;;;;;;4991150;28;20505;-54
2023/07/17 10:43:33;;;;;;;9.50;3.87;;;22.70;99.90;;;;;;4992672;28;20474;-55
2023/07/17 10:45:59;;;;;;;7.57;3.47;;;23.10;99.90;;;;;;4993920;28;20415;-54
2023/07/17 10:48:26;;;;;;;9.90;2.93;;;23.30;99.90;;;;;;4994199;28;20816;-54
2023/07/17 10:50:53;;;;;;;4.87;3.13;;;23.70;99.90;;;;;;4993533;28;20912;-54
2023/07/17 10:53:20;;;;;;;10.93;4.13;;;23.70;99.90;;;;;;4994285;28;20443;-55
2023/07/17 10:55:46;;;;;;;5.50;3.40;;;23.90;99.90;;;;;;4994264;28;20479;-55
2023/07/17 10:58:13;;;;;;;10.40;3.80;;;24.30;99.90;;;;;;4993945;28;20415;-54
2023/07/17 11:00:44;;;;;;;7.37;3.60;;;24.90;99.90;;;;;;4993790;28;20184;-55
2023/07/17 11:03:15;;;;;;;8.00;3.40;;;25.40;99.90;;;;;;4993874;28;20940;-54
2023/07/17 11:05:42;;;;;;;7.83;3.43;;;25.30;99.90;;;;;;4993548;28;20904;-55
2023/07/17 11:08:09;;;;;;;9.13;4.00;;;25.10;99.90;;;;;;4993711;28;20447;-55
2023/07/17 11:10:36;;;;;;;8.30;3.13;;;25.40;99.90;;;;;;4993693;28;20420;-55
2023/07/17 11:13:03;;;;;;;8.50;3.70;;;25.40;99.90;;;;;;4993588;28;20553;-54
2023/07/17 11:15:34;;;;;;;7.33;3.50;;;25.10;99.90;;;;;;4993839;28;20424;-54
2023/07/17 11:18:04;;;;;;;7.03;3.87;;;24.20;99.90;;;;;;4993442;28;20887;-54
2023/07/17 11:20:31;;;;;;;7.73;4.17;;;24.00;99.90;;;;;;4993649;28;20414;-55
2023/07/17 11:22:57;;;;;;;7.07;3.63;;;24.20;99.90;;;;;;4993965;28;20981;-55
2023/07/17 11:25:30;;;;;;;4.77;4.00;;;24.50;99.90;;;;;;4994011;28;20798;-55
2023/07/17 11:27:59;;;;;;;6.07;3.80;;;24.50;99.90;;;;;;4993656;28;20507;-54
2023/07/17 11:30:29;;;;;;;9.33;3.80;;;24.10;99.90;;;;;;4993425;28;20481;-54
2023/07/17 11:33:05;;;;;;;11.73;4.37;;;23.60;99.90;;;;;;4993874;28;20420;-54
2023/07/17 11:35:42;;;;;;;8.20;4.00;;;23.00;99.90;;;;;;4992964;28;20423;-55
2023/07/17 11:38:10;;;;;;;6.37;3.83;;;22.50;99.90;;;;;;4993672;28;20457;-52
2023/07/17 11:40:53;;;;;;;6.07;3.93;;;22.30;99.90;;;;;;4993730;28;20428;-53
2023/07/17 11:43:32;;;;;;;7.37;3.80;;;22.20;99.90;;;;;;4993793;28;20506;-53
2023/07/17 11:46:03;;;;;;;9.60;4.20;;;22.10;99.90;;;;;;4993581;28;20510;-53
2023/07/17 11:48:30;;;;;;;6.63;3.83;;;22.10;99.90;;;;;;4993357;28;20466;-53
2023/07/17 11:50:57;;;;;;;6.93;4.10;;;22.90;99.90;;;;;;4993365;28;20444;-54
2023/07/17 11:53:23;;;;;;;7.33;3.63;;;23.90;99.90;;;;;;4993234;28;20432;-54
2023/07/17 11:55:49;;;;;;;11.80;2.43;;;24.50;99.90;;;;;;4991870;28;20467;-54
2023/07/17 11:58:24;;;;;;;6.80;2.33;;;24.00;99.90;;;;;;4992912;28;20245;-54
2023/07/17 12:00:53;;;;;;;2.60;2.00;;;23.20;99.90;;;;;;4993089;28;20427;-54
2023/07/17 12:03:19;;;;;;;3.80;2.13;;;22.20;99.90;;;;;;4993471;28;20458;-53
2023/07/17 12:05:45;;;;;;;5.40;2.50;;;21.40;99.90;;;;;;4992976;28;20453;-54
2023/07/17 12:08:11;;;;;;;5.30;2.83;;;20.90;99.90;;;;;;4993028;28;20429;-54
2023/07/17 12:10:38;;;;;;;6.80;2.30;;;20.70;99.90;;;;;;4992991;28;20465;-54
2023/07/17 12:13:04;;;;;;;2.73;1.70;;;20.50;99.90;;;;;;4992679;28;20413;-54
2023/07/17 12:15:30;;;;;;;2.43;1.60;;;20.70;99.90;;;;;;4992999;28;20419;-55
2023/07/17 12:17:56;;;;;;;3.70;2.07;;;21.50;99.90;;;;;;4992826;28;20271;-55
2023/07/17 12:20:22;;;;;;;2.77;1.40;;;22.40;99.90;;;;;;4992379;28;20997;-53
2023/07/17 12:22:50;;;;;;;2.50;1.20;;;22.50;99.90;;;;;;4992905;28;20281;-53
2023/07/17 12:25:16;;;;;;;1.97;1.20;;;22.50;99.90;;;;;;4992689;28;20424;-54
2023/07/17 12:27:42;;;;;;;2.90;1.30;;;22.60;99.90;;;;;;4992502;28;20777;-55
2023/07/17 12:30:09;;;;;;;3.40;1.17;;;23.00;99.90;;;;;;4992231;28;20463;-53
2023/07/17 12:32:35;;;;;;;1.90;1.20;;;23.60;99.90;;;;;;4992670;28;20208;-53
2023/07/17 12:35:01;;;;;;;1.70;1.10;;;23.60;99.90;;;;;;4992777;28;20415;-53
2023/07/17 12:37:30;;;;;;;1.47;1.30;;;24.10;99.90;;;;;;4992663;28;20237;-53
2023/07/17 12:39:56;;;;;;;1.50;1.20;;;24.20;99.90;;;;;;4992392;28;20552;-52
2023/07/17 12:42:22;;;;;;;2.30;1.40;;;23.80;99.90;;;;;;4992953;28;20503;-53
2023/07/17 12:44:48;;;;;;;5.80;1.20;;;23.60;99.90;;;;;;4992334;28;20835;-53
2023/07/17 12:47:13;;;;;;;1.90;1.30;;;24.10;99.90;;;;;;4992401;28;20181;-53
2023/07/17 12:49:39;;;;;;;2.80;1.67;;;25.00;99.90;;;;;;4992560;28;20297;-53